Nearby METAR Reports


Data Updates Approximately Every Four Hours

METAR is the international standard code format for hourly surface weather observations which is analogous to the SA coding currently used in the US. The acronym roughly translates from French as Aviation Routine Weather Report. SPECI is merely the code name given to METAR formatted products which are issued on a special non-routine basis as dictated by changing meteorological conditions. The SPECI acronym roughly translates as Aviation Selected Special Weather Report.

KSLH - Cheboygan, Michigan, USA
Distance from station: W 9mi, 14km
Updated: 10/24/2021 3:55pm
Partly cloudy
Partly cloudy
 Wind from NNW
Wind: NNW 8 mph , 13 km/h
Temperature: 48°F , 9°C
Wind Chill: 44°F , 7°C
Dew Point: 39°F , 4°C
Humidity: 71%
Barometer: 30.02 inHg , 1016.6 hPa
Clouds: Partly cloudy
Visibility: 10 miles , 16 km
Cloud details: Partly cloudy 2400 ft
2021/10/24 19:55 KSLH 241955Z AUTO 33007KT 10SM SCT024 09/04 A3002 RMK AO2
KMCD - Mackinac Island, Michigan, USA
Distance from station: NW 19mi, 31km
Updated: 10/24/2021 3:55pm
Mostly cloudy
Mostly cloudy
 Wind from NNE
Wind: NNE 7 mph , 11 km/h
Temperature: 48°F , 9°C
Wind Chill: 45°F , 7°C
Dew Point: 36°F , 2°C
Humidity: 62%
Barometer: 30.03 inHg , 1016.9 hPa
Clouds: Mostly cloudy
Visibility: 10 miles , 16 km
Cloud details: Partly cloudy 2100 ft
Partly cloudy 4100 ft
Mostly cloudy 4700 ft
2021/10/24 19:55 KMCD 241955Z AUTO 02006KT 10SM SCT021 SCT041 BKN047 09/02 A3003 RMK AO2 T00870023
 
KPLN - Pellston, Michigan, USA
Distance from station: WSW 24mi, 38km
Updated: 10/24/2021 3:54pm
Mostly cloudy
Mostly cloudy
 Wind from N
Wind: N 7 mph , 11 km/h
Temperature: 48°F , 9°C
Wind Chill: 45°F , 7°C
Dew Point: 37°F , 3°C
Humidity: 66%
Barometer: 30.03 inHg , 1016.9 hPa
Clouds: Mostly cloudy
Visibility: 10 miles , 16 km
Cloud details: Partly cloudy 4300 ft
Mostly cloudy 5500 ft
2021/10/24 19:54 KPLN 241954Z AUTO 35006KT 10SM SCT043 BKN055 09/03 A3003 RMK AO2 SLP176 T00890028
KPZQ - Rogers City, Michigan, USA
Distance from station: SE 31mi, 50km
Updated: 10/24/2021 3:55pm
Overcast
Overcast
 Wind from NW
Wind: NW 8 mph , 13 km/h
Temperature: 48°F , 9°C
Wind Chill: 44°F , 7°C
Dew Point: 39°F , 4°C
Humidity: 71%
Barometer: 30.04 inHg , 1017.3 hPa
Clouds: Overcast
Visibility: 10 miles , 16 km
Cloud details: Partly cloudy 2600 ft
Mostly cloudy 5000 ft
Overcast 7500 ft
2021/10/24 19:55 KPZQ 241955Z AUTO 32007KT 10SM SCT026 BKN050 OVC075 09/04 A3004 RMK AO2 T00880041
 
KMGN - Harbor Springs, Michigan, USA
Distance from station: WSW 32mi, 52km
Updated: 10/24/2021 3:55pm
Partly cloudy
Partly cloudy
 Wind from calm
Wind: Calm
Temperature: 48°F , 9°C
Dew Point: 36°F , 2°C
Humidity: 62%
Barometer: 30.02 inHg , 1016.6 hPa
Clouds: Partly cloudy
Visibility: 10 miles , 16 km
Cloud details: Partly cloudy 4600 ft
Partly cloudy 5500 ft
2021/10/24 19:55 KMGN 241955Z AUTO 00000KT 10SM SCT046 SCT055 09/02 A3002 RMK AO2 T00960025
KDRM - Drummond Is, Michigan, USA
Distance from station: NE 36mi, 59km
Updated: 10/24/2021 3:55pm
Clear
Clear
 Wind from N
Wind: N 6 mph , 9 km/h
Temperature: 48°F , 9°C
Wind Chill: 45°F , 7°C
Dew Point: 37°F , 3°C
Humidity: 66%
Barometer: 30.03 inHg , 1016.9 hPa
Clouds: Clear
Visibility: 10 miles , 16 km
2021/10/24 19:55 KDRM 241955Z AUTO 35005KT 10SM CLR 09/03 A3003 RMK AO2 T00850031
 
KCIU - Chippewa Intl, Michigan, USA
Distance from station: N 41mi, 66km
Updated: 10/24/2021 3:56pm
Mostly cloudy
Mostly cloudy
 Wind from NNE
Wind: NNE 7 mph , 11 km/h
Temperature: 45°F , 7°C
Wind Chill: 41°F , 5°C
Dew Point: 36°F , 2°C
Humidity: 71%
Barometer: 30.05 inHg , 1017.6 hPa
Clouds: Mostly cloudy
Visibility: 10 miles , 16 km
Cloud details: Partly cloudy 2300 ft
Mostly cloudy 3600 ft
2021/10/24 19:56 KCIU 241956Z AUTO 02006KT 10SM SCT023 BKN036 07/02 A3005 RMK AO2 SLP182 T00720017
KGLR - Gaylord, Michigan, USA
Distance from station: SSW 48mi, 77km
Updated: 10/24/2021 3:53pm
Few Clouds
Few Clouds
 Wind from varies
Wind: varies 5 mph , 7 km/h
Temperature: 50°F , 10°C
Wind Chill: 48°F , 9°C
Dew Point: 34°F , 1°C
Humidity: 54%
Barometer: 30.00 inHg , 1015.9 hPa
Clouds: Few Clouds
Visibility: 10 miles , 16 km
Cloud details: Few Clouds 3700 ft
2021/10/24 19:53 KGLR 241953Z AUTO VRB04KT 10SM FEW037 10/01 A3000 RMK AO2 SLP168 T01000011
 
KCVX - Charlevoix, Michigan, USA
Distance from station: WSW 52mi, 83km
Updated: 10/24/2021 3:55pm
Partly cloudy
Partly cloudy
 Wind from N
Wind: N 8 mph , 13 km/h
Temperature: 50°F , 10°C
Wind Chill: 47°F , 8°C
Dew Point: 37°F , 3°C
Humidity: 62%
Barometer: 30.02 inHg , 1016.6 hPa
Clouds: Partly cloudy
Visibility: 10 miles , 16 km
Cloud details: Partly cloudy 3000 ft
2021/10/24 19:55 KCVX 241955Z AUTO 36007KT 10SM SCT030 10/03 A3002 RMK AO2 T01020029
KANJ - Sault Ste Marie, Michigan, USA
Distance from station: N 56mi, 89km
Updated: 10/24/2021 3:55pm
Partly cloudy
Partly cloudy
 Wind from varies
Wind: varies 3 mph , 6 km/h
Temperature: 46°F , 8°C
Dew Point: 34°F , 1°C
Humidity: 62%
Barometer: 30.04 inHg , 1017.3 hPa
Clouds: Partly cloudy
Visibility: 10 miles , 16 km
Cloud details: Few Clouds 2300 ft
Partly cloudy 3500 ft
2021/10/24 19:55 KANJ 241955Z AUTO VRB03KT 10SM FEW023 SCT035 08/01 A3004 RMK AO2 SLP176 T00830011 $
 
KAPN - Alpena, Michigan, USA
Distance from station: SE 56mi, 89km
Updated: 10/24/2021 3:54pm
Light rain, Overcast
Light rain, Overcast
 Wind from NW
Wind: NW 10 mph , 17 km/h
Temperature: 52°F , 11°C
Dew Point: 36°F , 2°C
Humidity: 54%
Barometer: 30.02 inHg , 1016.6 hPa
Summary: Light rain
Clouds: Overcast
Visibility: 10 miles , 16 km
Cloud details: Partly cloudy 4100 ft
Partly cloudy 4700 ft
Overcast 5500 ft
2021/10/24 19:54 KAPN 241954Z AUTO 31009KT 10SM -RA SCT041 SCT047 OVC055 11/02 A3002 RMK AO2 RAB47 SLP171 P0000 T01060022
CYAM - Sault Ste Marie, Ontario, Canada
Distance from station: N 56mi, 90km
Updated: 10/24/2021 3:00pm
Few Clouds
Few Clouds
 Wind from N
Wind: N 8 mph , 13 km/h
Temperature: 45°F , 7°C
Wind Chill: 41°F , 5°C
Dew Point: 37°F , 3°C
Humidity: 76%
Barometer: 30.05 inHg , 1017.6 hPa
Clouds: Few Clouds
Visibility: 20 miles , 32 km
Cloud details: Few Clouds 900 ft
Few Clouds 2000 ft
Few Clouds 11000 ft
2021/10/24 19:00 CYAM 241900Z 35007KT 280V060 20SM FEW009 FEW020 FEW110 07/03 A3005 RMK CF1CU1AC1 CF TR SLP183
 
KSJX - Beaver Island, Michigan, USA
Distance from station: W 60mi, 96km
Updated: 10/24/2021 3:55pm
Partly cloudy
Partly cloudy
 Wind from N
Wind: N 6 mph , 9 km/h
Temperature: 50°F , 10°C
Wind Chill: 48°F , 9°C
Dew Point: 36°F , 2°C
Humidity: 58%
Barometer: 30.03 inHg , 1016.9 hPa
Clouds: Partly cloudy
Visibility: 10 miles , 16 km
Cloud details: Partly cloudy 3300 ft
Partly cloudy 4000 ft
2021/10/24 19:55 KSJX 241955Z AUTO 35005KT 10SM SCT033 SCT040 10/02 A3003 RMK AO2 T01000021
KACB - Bellaire, Michigan, USA
Distance from station: SW 63mi, 102km
Updated: 10/24/2021 3:55pm
Mostly cloudy
Mostly cloudy
 Wind from NNE
Wind: NNE 3 mph , 6 km/h
Temperature: 50°F , 10°C
Dew Point: 39°F , 4°C
Humidity: 67%
Barometer: 30.02 inHg , 1016.6 hPa
Clouds: Mostly cloudy
Visibility: 10 miles , 16 km
Cloud details: Mostly cloudy 4700 ft
Mostly cloudy 6000 ft
2021/10/24 19:55 KACB 241955Z AUTO 02003KT 10SM BKN047 BKN060 10/04 A3002 RMK AO2 T00980042
 
CWNL - Great Duck Island, Ontario, Canada
Distance from station: E 66mi, 106km
Updated: 05/12/2021 9:00am
NOT Current

 Wind from NW
Wind: NW 7 mph , 11 km/h
Temperature: 41°F , 5°C
Wind Chill: 36°F , 2°C
Dew Point: 36°F , 2°C
Humidity: 81%
2021/05/12 13:00 CWNL 121300Z AUTO 32006KT 05/02 RMK AO1 SLP295 T00530023 51017
KERY - Newberry, Michigan, USA
Distance from station: NW 69mi, 112km
Updated: 10/24/2021 3:55pm
Mostly cloudy
Mostly cloudy
 Wind from NNE
Wind: NNE 9 mph , 15 km/h
Temperature: 46°F , 8°C
Wind Chill: 41°F , 5°C
Dew Point: 37°F , 3°C
Humidity: 71%
Barometer: 30.04 inHg , 1017.3 hPa
Clouds: Mostly cloudy
Visibility: 10 miles , 16 km
Cloud details: Partly cloudy 2500 ft
Partly cloudy 3100 ft
Mostly cloudy 4400 ft
2021/10/24 19:55 KERY 241955Z AUTO 03008KT 10SM SCT025 SCT031 BKN044 08/03 A3004 RMK AO2 T00760031
 
KGOV - Grayling Af, Michigan, USA
Distance from station: SSW 70mi, 113km
Updated: 10/24/2021 3:58pm
Mostly cloudy
Mostly cloudy
 Wind from N
Wind: N 8 mph , 13 km/h
Temperature: 48°F , 9°C
Wind Chill: 44°F , 7°C
Dew Point: 37°F , 3°C
Humidity: 66%
Barometer: 29.99 inHg , 1015.6 hPa
Clouds: Mostly cloudy
Visibility: 10 miles , 16 km
Cloud details: Mostly cloudy 5000 ft
2021/10/24 19:58 KGOV 241958Z AUTO 01007KT 10SM BKN050 09/03 A2999 RMK AO2 SLP170 T00920026 $